Time;durP1;ratioP1;P1;durP2;ratioP2;P2;SDS_P1;SDS_P2;PMS_P1;PMS_P2;Temp;Humidity;BMP_temperature;BMP_pressure;BME280_temperature;BME280_humidity;BME280_pressure;Samples;Min_cycle;Max_cycle;Signal;HPM_P1;HPM_P2
2023/01/13 00:00:17;;;;;;;1.30;1.20;;;;;;;-7.69;83.11;99995.47;4934859;29;20055;-81
2023/01/13 00:02:44;;;;;;;0.95;0.95;;;;;;;-7.69;83.26;99994.63;4919158;29;20543;-81
2023/01/13 00:05:12;;;;;;;1.00;1.00;;;;;;;-7.71;83.31;100001.75;4935350;29;20078;-80
2023/01/13 00:07:39;;;;;;;1.10;1.10;;;;;;;-7.67;83.48;100016.31;4935631;29;20051;-80
2023/01/13 00:10:08;;;;;;;1.10;1.10;;;;;;;-7.64;83.38;100010.88;4938061;29;20060;-79
2023/01/13 00:12:40;;;;;;;1.40;1.30;;;;;;;-7.64;83.51;99984.66;4936502;29;20055;-81
2023/01/13 00:15:09;;;;;;;1.00;1.00;;;;;;;-7.65;83.33;99993.47;4935215;29;20103;-81
2023/01/13 00:17:37;;;;;;;1.00;1.00;;;;;;;-7.68;83.50;99985.81;4918394;29;20048;-81
2023/01/13 00:20:05;;;;;;;0.90;0.90;;;;;;;-7.65;83.75;99994.28;4902229;29;20404;-80
2023/01/13 00:22:33;;;;;;;1.30;1.20;;;;;;;-7.68;83.79;99988.44;4933724;29;20099;-81
2023/01/13 00:25:03;;;;;;;1.00;1.00;;;;;;;-7.62;83.63;100003.75;4935027;29;20546;-80
2023/01/13 00:27:30;;;;;;;1.10;1.10;;;;;;;-7.61;83.92;99992.31;4934715;29;20111;-80
2023/01/13 00:29:58;;;;;;;1.02;1.02;;;;;;;-7.61;83.76;100013.28;4918039;29;20521;-80
2023/01/13 00:32:25;;;;;;;1.10;1.10;;;;;;;-7.62;83.87;99998.50;4934831;29;20048;-81
2023/01/13 00:34:52;;;;;;;1.10;1.10;;;;;;;-7.59;84.02;99974.72;4917937;29;20051;-80
2023/01/13 00:37:19;;;;;;;1.00;1.00;;;;;;;-7.59;83.87;99982.56;4917529;29;20518;-80
2023/01/13 00:39:46;;;;;;;1.00;1.00;;;;;;;-7.58;83.65;99984.22;4917970;29;20056;-80
2023/01/13 00:44:59;;;;;;;0.95;0.95;;;;;;;-7.57;83.91;99985.06;4934804;29;20190;-80
2023/01/13 00:47:30;;;;;;;1.05;1.05;;;;;;;-7.58;83.93;99994.72;4934646;29;20785;-81
2023/01/13 00:49:57;;;;;;;0.90;0.90;;;;;;;-7.58;84.03;99981.63;4934889;29;20155;-79
2023/01/13 00:52:24;;;;;;;1.05;1.05;;;;;;;-7.55;83.92;99989.25;4934492;29;20051;-80
2023/01/13 00:54:51;;;;;;;1.00;1.00;;;;;;;-7.58;84.10;99975.53;4934470;29;20048;-80
2023/01/13 00:57:18;;;;;;;1.17;1.17;;;;;;;-7.56;84.31;99984.16;4935469;29;20048;-81
2023/01/13 00:59:45;;;;;;;1.00;1.00;;;;;;;-7.53;84.19;99963.78;4936530;29;20507;-80
2023/01/13 01:02:15;;;;;;;1.00;1.00;;;;;;;-7.52;84.27;99967.25;4935533;29;20044;-80
2023/01/13 01:04:42;;;;;;;1.02;1.02;;;;;;;-7.54;84.31;99956.03;4936142;29;20056;-80
2023/01/13 01:07:09;;;;;;;1.00;1.00;;;;;;;-7.53;84.10;99961.16;4933481;29;20051;-80
2023/01/13 01:09:38;;;;;;;1.23;1.15;;;;;;;-7.55;84.15;99949.94;4934785;29;20051;-80
2023/01/13 01:12:05;;;;;;;1.10;1.10;;;;;;;-7.54;84.08;99949.00;4932925;29;20142;-80
2023/01/13 01:14:32;;;;;;;1.00;1.00;;;;;;;-7.51;84.13;99940.94;4934138;29;20139;-80
2023/01/13 01:16:59;;;;;;;1.00;1.00;;;;;;;-7.52;84.13;99935.78;4934120;29;20086;-81
2023/01/13 01:19:26;;;;;;;1.00;1.00;;;;;;;-7.52;84.30;99923.53;4933777;29;20060;-80
2023/01/13 01:21:53;;;;;;;0.90;0.90;;;;;;;-7.52;83.93;99947.13;4932711;29;20429;-79
2023/01/13 01:24:20;;;;;;;1.00;1.00;;;;;;;-7.54;84.08;99945.56;4900820;29;20548;-81
2023/01/13 01:26:47;;;;;;;1.10;1.10;;;;;;;-7.52;84.14;99957.63;4916993;29;20043;-81
2023/01/13 01:29:14;;;;;;;1.10;1.10;;;;;;;-7.50;83.92;99945.22;4933661;29;20511;-80
2023/01/13 01:31:42;;;;;;;1.27;1.20;;;;;;;-7.52;84.03;99952.38;4916602;29;20051;-81
2023/01/13 01:34:09;;;;;;;1.00;1.00;;;;;;;-7.48;84.08;99952.97;4933819;29;20514;-80
2023/01/13 01:36:36;;;;;;;1.10;1.10;;;;;;;-7.51;84.24;99938.31;4932480;29;20454;-79
2023/01/13 01:39:04;;;;;;;1.13;1.13;;;;;;;-7.49;84.12;99907.56;4916567;29;20096;-80
2023/01/13 01:41:33;;;;;;;0.73;0.73;;;;;;;-7.48;84.07;99934.63;4932804;29;20051;-80
2023/01/13 01:44:41;;;;;;;1.08;1.08;;;;;;;-7.48;84.14;99938.09;4933955;29;20048;-81
2023/01/13 01:47:12;;;;;;;1.10;1.10;;;;;;;-7.47;84.22;99928.41;4893001;29;20063;-80
2023/01/13 01:49:39;;;;;;;1.10;1.10;;;;;;;-7.48;83.85;99922.34;4888669;29;20125;-81
2023/01/13 01:52:13;;;;;;;1.10;1.10;;;;;;;-7.47;84.07;99921.41;4859037;29;20053;-81
2023/01/13 01:55:00;;;;;;;1.00;1.00;;;;;;;-7.45;84.25;99918.66;4859403;29;20480;-81
2023/01/13 01:57:38;;;;;;;1.10;1.10;;;;;;;-7.47;84.05;99910.94;4859339;29;20160;-81
2023/01/13 02:00:07;;;;;;;0.95;0.95;;;;;;;-7.54;84.10;99899.19;4859209;29;20100;-81
2023/01/13 02:02:42;;;;;;;1.30;1.20;;;;;;;-7.47;84.23;99889.09;4859235;29;20497;-80
2023/01/13 02:05:09;;;;;;;0.90;0.90;;;;;;;-7.54;83.72;99866.91;4874552;29;20053;-80
2023/01/13 02:07:38;;;;;;;1.13;1.13;;;;;;;-7.53;83.87;99886.91;4874533;29;20065;-81
2023/01/13 02:10:08;;;;;;;1.10;1.10;;;;;;;-7.62;83.93;99888.41;4874498;29;20142;-81
2023/01/13 02:12:35;;;;;;;1.00;1.00;;;;;;;-7.56;84.06;99893.22;4874463;29;20053;-83
2023/01/13 02:15:17;;;;;;;0.80;0.80;;;;;;;-7.53;84.29;99884.28;4859143;29;20441;-82
2023/01/13 02:17:44;;;;;;;1.17;1.15;;;;;;;-7.52;84.40;99909.56;4878000;29;20056;-86
2023/01/13 02:20:28;;;;;;;1.23;1.20;;;;;;;-7.49;84.16;99899.72;4896533;29;20052;-84
2023/01/13 02:24:52;;;;;;;1.10;1.10;;;;;;;-7.51;84.03;99917.31;4907751;29;20055;-84
2023/01/13 02:26:09;;;;;;;1.13;1.13;;;;;;;-7.53;83.88;99916.59;4932134;29;20600;-82
2023/01/13 02:31:42;;;;;;;1.05;1.05;;;;;;;-7.64;84.19;99885.03;4931754;29;20407;-84
2023/01/13 02:34:39;;;;;;;0.93;0.93;;;;;;;-7.59;84.51;99909.16;4933050;29;20051;-83
2023/01/13 02:37:11;;;;;;;1.35;1.25;;;;;;;-7.60;84.50;99894.34;4877441;29;20615;-77
2023/01/13 02:39:48;;;;;;;1.02;1.02;;;;;;;-7.61;84.52;99879.59;4891361;29;20160;-81
2023/01/13 02:45:14;;;;;;;1.40;1.30;;;;;;;-7.59;84.71;99897.84;4878579;29;20132;-83
2023/01/13 02:47:43;;;;;;;1.00;1.00;;;;;;;-7.59;84.78;99898.69;4874872;29;20060;-82
2023/01/13 02:50:18;;;;;;;0.93;0.93;;;;;;;-7.57;84.83;99901.16;4891116;29;20055;-83
2023/01/13 02:52:51;;;;;;;1.10;1.10;;;;;;;-7.56;84.93;99890.59;4860770;29;20156;-81
2023/01/13 02:55:22;;;;;;;1.00;1.00;;;;;;;-7.53;84.50;99902.66;4891321;29;20088;-83
2023/01/13 02:57:50;;;;;;;1.00;1.00;;;;;;;-7.57;84.23;99893.31;4875893;29;20049;-83
2023/01/13 03:00:17;;;;;;;1.10;1.10;;;;;;;-7.62;84.20;99891.03;4891038;29;20223;-83
2023/01/13 03:02:47;;;;;;;1.00;1.00;;;;;;;-7.59;84.42;99906.53;4891527;29;20058;-81
2023/01/13 03:05:15;;;;;;;1.00;1.00;;;;;;;-7.59;84.08;99909.16;4891167;29;20052;-82
2023/01/13 03:08:03;;;;;;;1.08;1.08;;;;;;;-7.60;83.97;99899.59;4885195;29;20052;-81
2023/01/13 03:10:50;;;;;;;1.00;1.00;;;;;;;-7.59;83.82;99900.47;4907741;29;20095;-82
2023/01/13 03:13:20;;;;;;;1.13;1.13;;;;;;;-7.61;83.53;99900.56;4905188;29;20059;-82
2023/01/13 03:16:00;;;;;;;0.98;0.98;;;;;;;-7.60;83.83;99904.84;4931074;29;20067;-81
2023/01/13 03:18:52;;;;;;;1.00;1.00;;;;;;;-7.57;83.58;99901.16;4930998;29;20126;-81
2023/01/13 03:21:40;;;;;;;1.20;1.20;;;;;;;-7.59;83.90;99880.31;4928754;29;20462;-84
2023/01/13 03:24:17;;;;;;;1.10;1.10;;;;;;;-7.62;84.13;99888.41;4931453;29;20067;-81
2023/01/13 03:27:05;;;;;;;1.10;1.10;;;;;;;-7.58;84.21;99886.41;4913373;29;20402;-81
2023/01/13 03:29:33;;;;;;;0.90;0.90;;;;;;;-7.60;84.00;99896.16;4949602;29;20051;-81
2023/01/13 03:32:02;;;;;;;1.10;1.10;;;;;;;-7.61;83.92;99897.94;4959258;29;20501;-82
2023/01/13 03:34:44;;;;;;;1.10;1.10;;;;;;;-7.62;83.97;99883.16;4962934;28;20055;-82
2023/01/13 03:37:13;;;;;;;1.10;1.10;;;;;;;-7.66;83.93;99887.75;4964769;29;20106;-84
2023/01/13 03:39:44;;;;;;;0.85;0.85;;;;;;;-7.65;84.02;99888.59;4959946;29;20054;-78
2023/01/13 03:42:16;;;;;;;1.40;1.30;;;;;;;-7.65;83.90;99880.72;4932315;29;20381;-80
2023/01/13 03:45:09;;;;;;;1.10;1.10;;;;;;;-7.64;83.56;99879.81;4919729;29;20056;-83
2023/01/13 03:47:51;;;;;;;1.33;1.23;;;;;;;-7.66;83.81;99874.66;4948250;29;20524;-78
2023/01/13 03:50:22;;;;;;;0.90;0.90;;;;;;;-7.67;83.87;99874.75;4938075;29;20058;-79
2023/01/13 03:52:54;;;;;;;1.00;1.00;;;;;;;-7.69;83.77;99890.59;4951627;29;20067;-80
2023/01/13 03:55:30;;;;;;;1.30;1.20;;;;;;;-7.68;83.82;99884.41;4936844;29;20560;-80
2023/01/13 03:58:06;;;;;;;1.10;1.10;;;;;;;-7.65;83.69;99891.22;4953393;29;20081;-80
2023/01/13 04:00:37;;;;;;;1.02;1.02;;;;;;;-7.64;83.51;99900.78;4950361;29;20051;-79
2023/01/13 04:03:19;;;;;;;1.30;1.20;;;;;;;-7.68;83.44;99896.69;4952812;29;20062;-79
2023/01/13 04:05:51;;;;;;;0.90;0.90;;;;;;;-7.64;83.71;99900.78;4937217;29;20146;-79
2023/01/13 04:08:21;;;;;;;1.02;1.02;;;;;;;-7.66;83.63;99913.16;4936916;29;20059;-79
2023/01/13 04:10:55;;;;;;;1.13;1.13;;;;;;;-7.66;83.34;99906.13;4937088;29;20487;-81
2023/01/13 04:13:24;;;;;;;1.00;1.00;;;;;;;-7.65;83.46;99891.22;4914252;29;20100;-80
2023/01/13 04:15:51;;;;;;;1.00;1.00;;;;;;;-7.68;83.27;99887.03;4899319;29;20511;-79
2023/01/13 04:18:27;;;;;;;1.00;1.00;;;;;;;-7.69;83.47;99895.03;4915957;29;20054;-81
2023/01/13 04:20:56;;;;;;;1.08;1.08;;;;;;;-7.68;83.65;99884.41;4922335;29;20529;-79
2023/01/13 04:23:24;;;;;;;1.00;1.00;;;;;;;-7.68;83.61;99884.41;4917910;29;20044;-80
2023/01/13 04:25:51;;;;;;;1.00;1.00;;;;;;;-7.69;83.63;99892.41;4933672;29;20048;-80
2023/01/13 04:28:19;;;;;;;0.88;0.88;;;;;;;-7.71;83.51;99900.34;4934362;29;20061;-79
2023/01/13 04:30:46;;;;;;;1.20;1.20;;;;;;;-7.71;83.75;99889.88;4936652;29;20134;-78
2023/01/13 04:33:14;;;;;;;0.90;0.90;;;;;;;-7.68;83.88;99896.69;4917790;29;20066;-81
2023/01/13 04:35:44;;;;;;;1.10;1.10;;;;;;;-7.67;83.57;99900.97;4934889;29;20079;-81
2023/01/13 04:38:14;;;;;;;1.00;1.00;;;;;;;-7.68;83.71;99905.38;4933566;29;20131;-81
2023/01/13 04:40:41;;;;;;;1.00;1.00;;;;;;;-7.62;83.65;99906.75;4918266;29;20103;-80
2023/01/13 04:43:08;;;;;;;0.93;0.93;;;;;;;-7.59;83.68;99905.72;4932741;29;20044;-80
2023/01/13 04:45:36;;;;;;;1.33;1.23;;;;;;;-7.56;83.72;99895.84;4933406;29;20048;-80
2023/01/13 04:48:04;;;;;;;0.90;0.90;;;;;;;-7.53;83.30;99900.84;4934338;29;20044;-80
2023/01/13 04:50:31;;;;;;;1.00;1.00;;;;;;;-7.64;83.54;99892.91;4933886;29;20529;-80
2023/01/13 04:53:00;;;;;;;0.80;0.80;;;;;;;-7.58;83.39;99899.50;4933826;29;20111;-80
2023/01/13 04:55:27;;;;;;;0.90;0.90;;;;;;;-7.63;83.38;99912.94;4932584;29;20134;-81
2023/01/13 04:57:54;;;;;;;1.08;1.08;;;;;;;-7.63;83.43;99902.44;4934195;29;20148;-80
2023/01/13 05:00:22;;;;;;;0.88;0.88;;;;;;;-7.65;83.29;99893.84;4933307;29;20051;-81
2023/01/13 05:02:50;;;;;;;0.90;0.90;;;;;;;-7.64;83.51;99900.78;4933923;29;20056;-80
2023/01/13 05:05:23;;;;;;;1.13;1.13;;;;;;;-7.64;83.64;99909.47;4933531;29;20146;-81
2023/01/13 05:08:01;;;;;;;0.90;0.90;;;;;;;-7.60;83.52;99910.09;4916858;29;20131;-81
2023/01/13 05:10:40;;;;;;;1.02;1.02;;;;;;;-7.66;83.19;99913.16;4933550;29;20125;-81
2023/01/13 05:19:10;;;;;;;0.90;0.90;;;;;;;-7.65;83.36;99935.78;4933355;29;20052;-81
2023/01/13 05:27:08;;;;;;;1.02;1.02;;;;;;;-7.62;83.49;99927.72;4933793;29;20051;-79
2023/01/13 05:29:35;;;;;;;1.00;1.00;;;;;;;-7.66;83.32;99929.72;4934294;29;20142;-80
2023/01/13 05:32:05;;;;;;;1.30;1.20;;;;;;;-7.64;83.61;99919.97;4934769;29;20061;-79
2023/01/13 05:34:32;;;;;;;1.02;1.02;;;;;;;-7.62;83.55;99925.09;4933382;29;20070;-82
2023/01/13 05:36:59;;;;;;;0.93;0.93;;;;;;;-7.62;83.69;99932.97;4933940;29;20050;-82
2023/01/13 05:39:26;;;;;;;1.02;1.02;;;;;;;-7.61;83.73;99931.19;4934196;29;20363;-78
2023/01/13 05:44:39;;;;;;;0.90;0.90;;;;;;;-7.61;83.21;99926.78;4934459;29;20055;-80
2023/01/13 05:47:06;;;;;;;0.80;0.80;;;;;;;-7.56;82.93;99931.69;4933653;29;20138;-80
2023/01/13 05:49:33;;;;;;;1.02;1.02;;;;;;;-7.60;83.00;99944.16;4933048;29;20075;-80
2023/01/13 05:52:01;;;;;;;1.15;1.15;;;;;;;-7.58;83.18;99930.97;4930697;29;20060;-80
2023/01/13 05:54:28;;;;;;;0.95;0.95;;;;;;;-7.58;82.97;99931.81;4919407;29;20242;-80
2023/01/13 05:56:55;;;;;;;1.00;1.00;;;;;;;-7.63;83.08;99936.53;4922250;29;20052;-80
2023/01/13 05:59:22;;;;;;;1.00;1.00;;;;;;;-7.64;83.27;99933.06;4910630;29;20064;-80
2023/01/13 06:01:49;;;;;;;0.90;0.90;;;;;;;-7.57;83.04;99943.13;4910700;29;20083;-79
2023/01/13 06:04:16;;;;;;;0.90;0.90;;;;;;;-7.65;82.95;99930.53;4572066;28;10000264;-79
2023/01/13 06:06:44;;;;;;;1.27;1.20;;;;;;;-7.63;83.14;99921.63;4914835;29;20100;-80
2023/01/13 06:09:12;;;;;;;1.00;1.00;;;;;;;-7.62;83.03;99930.34;4900045;29;20133;-78
2023/01/13 06:11:41;;;;;;;1.40;1.30;;;;;;;-7.66;82.97;99932.31;4924485;29;20052;-80
2023/01/13 06:14:08;;;;;;;1.10;1.10;;;;;;;-7.64;82.90;99927.81;4919808;29;20060;-79
2023/01/13 06:16:36;;;;;;;1.10;1.10;;;;;;;-7.61;83.09;99936.44;4917636;29;20048;-79
2023/01/13 06:19:07;;;;;;;1.05;1.05;;;;;;;-7.61;83.16;99928.56;4914348;29;20654;-79
2023/01/13 06:21:35;;;;;;;0.93;0.93;;;;;;;-7.60;83.36;99915.31;4923396;29;20075;-79
2023/01/13 06:24:02;;;;;;;1.05;1.05;;;;;;;-7.57;83.30;99912.53;4923184;29;20060;-80
2023/01/13 06:26:33;;;;;;;1.00;1.00;;;;;;;-7.53;83.25;99913.97;4910060;29;20107;-80
2023/01/13 06:29:02;;;;;;;1.00;1.00;;;;;;;-7.53;82.86;99919.22;4920702;29;20083;-83
2023/01/13 06:31:30;;;;;;;1.10;1.10;;;;;;;-7.55;82.89;99915.84;4927877;29;20187;-81
2023/01/13 06:34:09;;;;;;;1.10;1.10;;;;;;;-7.54;82.57;99933.28;4911870;29;20051;-80
2023/01/13 06:37:02;;;;;;;0.75;0.75;;;;;;;-7.52;82.52;99939.25;4909486;29;20512;-79
2023/01/13 06:39:35;;;;;;;1.30;1.20;;;;;;;-7.55;82.70;99939.44;4910791;29;20079;-80
2023/01/13 06:44:50;;;;;;;0.98;0.98;;;;;;;-7.67;82.83;99909.69;4918299;29;20068;-80
2023/01/13 06:47:21;;;;;;;0.95;0.95;;;;;;;-7.60;83.06;99924.97;4910345;29;20052;-79
2023/01/13 06:49:52;;;;;;;0.93;0.93;;;;;;;-7.67;82.77;99904.44;4903938;29;20054;-78
2023/01/13 06:52:20;;;;;;;1.10;1.10;;;;;;;-7.61;82.70;99899.72;4927732;29;20170;-79
2023/01/13 06:54:47;;;;;;;1.10;1.10;;;;;;;-7.46;82.94;99915.22;4929536;29;20056;-80
2023/01/13 06:57:14;;;;;;;1.00;1.00;;;;;;;-7.45;82.39;99911.63;4910779;29;20066;-79
2023/01/13 06:59:43;;;;;;;1.13;1.13;;;;;;;-7.47;82.27;99904.81;4917276;29;20590;-80
2023/01/13 07:02:10;;;;;;;1.13;1.13;;;;;;;-7.53;82.20;99913.97;4918168;29;20060;-80
2023/01/13 07:04:37;;;;;;;0.88;0.88;;;;;;;-7.52;82.57;99928.78;4927973;29;20051;-79
2023/01/13 07:07:07;;;;;;;1.00;1.00;;;;;;;-7.53;82.59;99908.72;4908817;29;20466;-81
2023/01/13 07:09:38;;;;;;;1.08;1.08;;;;;;;-7.46;82.53;99917.00;4914071;29;20616;-81
2023/01/13 07:12:11;;;;;;;1.10;1.10;;;;;;;-7.42;82.31;99921.94;4904758;29;20047;-80
2023/01/13 07:17:24;;;;;;;0.80;0.80;;;;;;;-7.38;82.16;99925.16;4932445;29;20051;-79
2023/01/13 07:19:54;;;;;;;1.10;1.10;;;;;;;-7.35;82.12;99911.00;4932870;29;20056;-81
2023/01/13 07:22:21;;;;;;;1.00;1.00;;;;;;;-7.31;81.83;99928.22;4927187;29;20063;-79
2023/01/13 07:24:49;;;;;;;1.00;1.00;;;;;;;-7.27;81.85;99930.50;4929864;29;20067;-81
2023/01/13 07:27:16;;;;;;;1.13;1.13;;;;;;;-7.24;81.53;99929.44;4935801;29;20058;-79
2023/01/13 07:29:43;;;;;;;1.10;1.10;;;;;;;-7.23;81.57;99942.44;4935851;29;20059;-81
2023/01/13 07:32:10;;;;;;;0.95;0.95;;;;;;;-7.23;81.43;99918.00;4934663;29;20058;-82
2023/01/13 07:34:37;;;;;;;0.95;0.95;;;;;;;-7.23;80.88;99939.81;4935983;29;20052;-82
2023/01/13 07:37:04;;;;;;;1.00;1.00;;;;;;;-7.16;80.79;99947.25;4936125;29;20515;-81
2023/01/13 07:39:31;;;;;;;1.30;1.20;;;;;;;-7.20;80.54;99936.16;4931301;29;20147;-79
2023/01/13 07:44:43;;;;;;;1.05;1.05;;;;;;;-7.17;80.66;99937.72;4931585;29;20139;-80
2023/01/13 07:47:10;;;;;;;1.25;1.20;;;;;;;-7.19;80.87;99937.81;4926005;29;20052;-81
2023/01/13 07:49:37;;;;;;;1.00;1.00;;;;;;;-7.19;80.32;99943.06;4932344;29;20498;-80
2023/01/13 07:52:05;;;;;;;0.90;0.90;;;;;;;-7.22;80.48;99938.03;4925706;29;20102;-79
2023/01/13 07:54:32;;;;;;;1.08;1.08;;;;;;;-7.28;80.60;99934.06;4916333;29;20494;-79
2023/01/13 07:57:06;;;;;;;1.38;1.27;;;;;;;-7.33;80.70;99937.97;4927074;29;20146;-79
2023/01/13 07:59:33;;;;;;;1.00;1.00;;;;;;;-7.29;80.63;99952.53;4921357;29;20058;-81
2023/01/13 08:02:00;;;;;;;1.10;1.10;;;;;;;-7.25;80.25;99967.13;4933141;29;20063;-81
2023/01/13 08:04:28;;;;;;;1.10;1.10;;;;;;;-7.31;80.41;99947.41;4916376;29;20052;-80
2023/01/13 08:06:55;;;;;;;1.02;1.02;;;;;;;-7.24;80.74;99940.78;4931277;29;20070;-80
2023/01/13 08:09:22;;;;;;;1.23;1.20;;;;;;;-7.20;80.20;99941.41;4928462;29;20072;-81
2023/01/13 08:13:16;;;;;;;1.10;1.10;;;;;;;-7.18;80.37;99943.94;4927858;29;20569;-80
2023/01/13 08:14:40;;;;;;;1.40;1.30;;;;;;;-7.15;80.26;99941.06;4929668;29;20051;-82
2023/01/13 08:17:08;;;;;;;1.10;1.10;;;;;;;-7.14;80.19;99933.13;4901613;29;20048;-80
2023/01/13 08:19:35;;;;;;;1.30;1.20;;;;;;;-7.15;79.85;99935.81;4930828;29;20463;-79
2023/01/13 08:22:02;;;;;;;1.10;1.10;;;;;;;-7.14;80.05;99932.25;4916266;29;20115;-78
2023/01/13 08:24:30;;;;;;;1.25;1.20;;;;;;;-7.19;79.58;99937.81;4928962;29;20063;-79
2023/01/13 08:26:57;;;;;;;1.13;1.13;;;;;;;-7.24;79.50;99940.78;4929408;29;20048;-80
2023/01/13 08:29:24;;;;;;;1.00;1.00;;;;;;;-7.25;79.92;99952.22;4926549;29;20059;-80
2023/01/13 08:31:50;;;;;;;1.02;1.02;;;;;;;-7.23;79.90;99949.50;4927363;29;20058;-82
2023/01/13 08:34:18;;;;;;;1.00;1.00;;;;;;;-7.28;79.81;99954.22;4916224;29;20503;-81
2023/01/13 08:36:47;;;;;;;1.13;1.13;;;;;;;-7.29;80.03;99948.13;4932937;29;20062;-80
2023/01/13 08:39:14;;;;;;;1.10;1.10;;;;;;;-7.24;80.42;99945.16;4910766;29;20574;-80
2023/01/13 08:41:55;;;;;;;1.10;1.10;;;;;;;-7.24;80.23;99940.78;4912183;29;20119;-82
2023/01/13 08:44:27;;;;;;;1.10;1.10;;;;;;;-7.23;80.46;99939.00;4933366;29;20060;-80
2023/01/13 08:46:55;;;;;;;1.20;1.17;;;;;;;-7.16;80.19;99940.25;4928026;29;20086;-81
2023/01/13 08:49:23;;;;;;;1.10;1.10;;;;;;;-7.14;80.38;99945.38;4916942;29;20055;-82
2023/01/13 08:51:51;;;;;;;1.45;1.35;;;;;;;-7.10;80.16;99946.84;4934047;29;20055;-80
2023/01/13 08:54:18;;;;;;;0.93;0.93;;;;;;;-7.09;80.13;99928.38;4923392;29;20063;-81
2023/01/13 08:56:46;;;;;;;0.90;0.90;;;;;;;-7.14;79.92;99920.00;4925872;29;20048;-79
2023/01/13 08:59:15;;;;;;;0.98;0.98;;;;;;;-7.09;80.08;99933.63;4921979;29;20059;-83
2023/01/13 09:01:42;;;;;;;0.95;0.95;;;;;;;-7.09;80.10;99931.00;4925052;29;20068;-81
2023/01/13 09:04:20;;;;;;;1.02;1.02;;;;;;;-7.09;79.96;99944.13;4910852;29;20052;-80
2023/01/13 09:06:48;;;;;;;1.13;1.13;;;;;;;-7.09;80.16;99933.63;4917987;29;20044;-80
2023/01/13 09:09:16;;;;;;;0.90;0.90;;;;;;;-7.06;80.15;99933.41;4925712;29;20051;-80
2023/01/13 09:14:32;;;;;;;1.00;1.00;;;;;;;-7.00;80.24;99909.31;4912937;29;20470;-79
2023/01/13 09:16:59;;;;;;;1.02;1.02;;;;;;;-6.95;79.93;99892.41;4930753;29;20059;-83
2023/01/13 09:19:27;;;;;;;1.02;1.02;;;;;;;-6.93;80.01;99909.72;4909669;29;20502;-80
2023/01/13 09:21:54;;;;;;;0.98;0.98;;;;;;;-6.86;80.00;99897.84;4920390;29;20082;-81
2023/01/13 09:24:22;;;;;;;1.30;1.20;;;;;;;-6.82;80.15;99901.06;4915982;29;20165;-81
2023/01/13 09:26:49;;;;;;;1.02;1.02;;;;;;;-6.75;79.70;99899.69;4923664;29;20052;-81
2023/01/13 09:29:17;;;;;;;0.90;0.90;;;;;;;-6.82;79.35;99899.28;4922757;29;20094;-83
2023/01/13 09:31:44;;;;;;;0.93;0.93;;;;;;;-6.76;79.46;99896.22;4925991;29;20506;-79
2023/01/13 09:37:02;;;;;;;1.10;1.10;;;;;;;-6.84;78.96;99881.97;4911791;29;20056;-80
2023/01/13 09:39:34;;;;;;;1.15;1.15;;;;;;;-6.79;79.16;99880.66;4910534;29;20139;-81
2023/01/13 09:45:21;;;;;;;1.08;1.08;;;;;;;-6.81;78.80;99889.63;4912554;29;20056;-81
2023/01/13 09:47:52;;;;;;;1.08;1.08;;;;;;;-6.78;79.07;99886.78;4930649;29;20055;-81
2023/01/13 09:50:42;;;;;;;1.05;1.05;;;;;;;-6.80;79.09;99891.31;4934208;29;20047;-80
2023/01/13 09:53:33;;;;;;;0.90;0.90;;;;;;;-6.80;79.05;99891.31;4914683;29;20483;-79
2023/01/13 09:56:00;;;;;;;0.77;0.77;;;;;;;-6.81;78.88;99889.63;4921319;29;20119;-79
2023/01/13 09:58:27;;;;;;;1.05;1.05;;;;;;;-6.85;79.02;99903.94;4918316;29;20061;-79
2023/01/13 10:00:54;;;;;;;0.80;0.80;;;;;;;-6.88;79.23;99883.16;4914866;29;20044;-80
2023/01/13 10:03:30;;;;;;;0.70;0.70;;;;;;;-6.89;79.39;99879.66;4929096;29;20054;-81
2023/01/13 10:06:05;;;;;;;1.08;1.08;;;;;;;-6.90;79.17;99882.44;4925623;29;20060;-81
2023/01/13 10:08:40;;;;;;;0.90;0.90;;;;;;;-6.78;79.50;99881.53;4924822;29;20431;-80
2023/01/13 10:14:10;;;;;;;;;;;;;;;-6.74;79.03;99879.50;4931783;29;20074;-81
2023/01/13 10:16:46;;;;;;;0.93;0.93;;;;;;;-6.78;79.28;99889.41;4926110;29;19926;-81
2023/01/13 10:19:55;;;;;;;1.00;1.00;;;;;;;-6.72;79.48;99886.31;4916691;29;20150;-84
2023/01/13 10:23:07;;;;;;;1.00;1.00;;;;;;;-6.72;79.24;99888.13;4890845;29;20091;-80
2023/01/13 10:25:43;;;;;;;0.90;0.90;;;;;;;-6.80;79.34;99897.38;4888573;29;20152;-83
2023/01/13 10:28:13;;;;;;;0.88;0.88;;;;;;;-6.81;79.42;99892.22;4886059;29;20527;-85
2023/01/13 10:30:44;;;;;;;0.90;0.90;;;;;;;-6.82;79.51;99887.94;4886325;29;20458;-83
2023/01/13 10:33:19;;;;;;;1.30;1.20;;;;;;;-6.78;79.76;99886.78;4892236;29;20198;-81
2023/01/13 10:35:57;;;;;;;0.93;0.93;;;;;;;-6.82;79.40;99901.06;4870556;29;20076;-85
2023/01/13 10:38:36;;;;;;;1.00;1.00;;;;;;;-6.83;79.71;99891.53;4886574;29;20064;-85
2023/01/13 10:41:08;;;;;;;0.90;0.90;;;;;;;-6.82;79.73;99894.03;4892565;29;20151;-84
2023/01/13 10:43:35;;;;;;;1.10;1.10;;;;;;;-6.84;79.99;99879.34;4878792;29;20063;-84
2023/01/13 10:46:11;;;;;;;0.90;0.90;;;;;;;-6.80;80.00;99888.69;4897343;29;20056;-82
2023/01/13 10:48:57;;;;;;;1.10;1.10;;;;;;;-6.82;80.12;99885.31;4895682;29;20048;-83
2023/01/13 10:51:50;;;;;;;0.98;0.98;;;;;;;-6.82;80.08;99908.94;4897120;29;20059;-82
2023/01/13 10:54:22;;;;;;;1.10;1.10;;;;;;;-6.79;80.05;99908.72;4889539;29;20087;-83
2023/01/13 10:57:19;;;;;;;1.30;1.20;;;;;;;-6.76;79.96;99898.00;4893224;29;20729;-85
2023/01/13 10:59:49;;;;;;;0.90;0.90;;;;;;;-6.79;79.80;99900.84;4927307;29;20047;-84
2023/01/13 11:02:29;;;;;;;1.00;1.00;;;;;;;-6.84;79.80;99902.97;4929274;29;20512;-82
2023/01/13 11:04:56;;;;;;;0.80;0.80;;;;;;;-6.81;79.77;99914.09;4932721;29;20053;-83
2023/01/13 11:07:39;;;;;;;1.10;1.10;;;;;;;-6.77;79.70;99906.81;4930164;29;20055;-82
2023/01/13 11:10:15;;;;;;;1.00;1.00;;;;;;;-6.73;79.79;99908.28;4929020;29;20056;-81
2023/01/13 11:13:00;;;;;;;1.10;1.10;;;;;;;-6.70;79.63;99901.97;4927083;29;20063;-83
2023/01/13 11:15:35;;;;;;;1.10;1.10;;;;;;;-6.77;79.69;99896.31;4929537;29;20083;-82
2023/01/13 11:18:09;;;;;;;0.70;0.70;;;;;;;-6.68;79.67;99903.53;4928462;29;20159;-82
2023/01/13 11:20:40;;;;;;;1.10;1.10;;;;;;;-6.73;79.52;99902.19;4938197;29;20059;-83
2023/01/13 11:23:20;;;;;;;1.00;1.00;;;;;;;-6.65;79.57;99902.47;4953844;29;20406;-83
2023/01/13 11:25:52;;;;;;;1.10;1.10;;;;;;;-6.66;79.50;99901.66;4930468;29;20438;-82
2023/01/13 11:28:35;;;;;;;0.90;0.90;;;;;;;-6.63;79.59;99903.22;4953518;29;20131;-82
2023/01/13 11:31:27;;;;;;;1.00;1.00;;;;;;;-6.60;79.62;99903.81;4949593;29;20062;-80
2023/01/13 11:34:03;;;;;;;0.90;0.90;;;;;;;-6.66;79.49;99906.91;4934741;29;20458;-83
2023/01/13 11:36:50;;;;;;;0.98;0.98;;;;;;;-6.62;79.55;99904.88;4935025;29;20062;-82
2023/01/13 11:39:56;;;;;;;1.10;1.10;;;;;;;-6.61;79.47;99906.53;4935321;29;20061;-83
2023/01/13 11:42:37;;;;;;;1.00;1.00;;;;;;;-6.66;79.53;99899.03;4935753;29;20059;-84
2023/01/13 11:45:15;;;;;;;1.10;1.10;;;;;;;-6.64;79.91;99902.34;4936633;29;20142;-82
2023/01/13 11:47:45;;;;;;;0.90;0.90;;;;;;;-6.65;79.77;99905.94;4935363;29;20055;-83
2023/01/13 11:50:34;;;;;;;0.95;0.95;;;;;;;-6.69;80.35;99907.09;4934645;29;20138;-83
2023/01/13 11:53:04;;;;;;;0.90;0.90;;;;;;;-6.74;80.24;99916.25;4934876;29;20071;-83
2023/01/13 11:55:54;;;;;;;1.00;1.00;;;;;;;-6.75;80.69;99907.56;4935244;29;20449;-82
2023/01/13 11:59:02;;;;;;;1.00;1.00;;;;;;;-6.80;80.84;99915.75;4935468;29;20074;-83
2023/01/13 12:01:38;;;;;;;0.90;0.90;;;;;;;-6.87;81.08;99903.19;4895515;29;20060;-83
2023/01/13 12:04:05;;;;;;;0.82;0.82;;;;;;;-6.83;81.28;99912.53;4896208;29;20062;-82
2023/01/13 12:06:38;;;;;;;0.82;0.82;;;;;;;-6.79;81.34;99920.06;4879301;29;20049;-83
2023/01/13 12:09:25;;;;;;;1.00;1.00;;;;;;;-6.79;81.46;99916.59;4854063;29;20434;-83
2023/01/13 12:12:18;;;;;;;0.88;0.88;;;;;;;-6.75;81.51;99910.19;4872414;29;20149;-82
2023/01/13 12:15:05;;;;;;;0.90;0.90;;;;;;;-6.81;81.54;99911.47;4858436;29;20152;-82
2023/01/13 12:18:09;;;;;;;1.00;1.00;;;;;;;-6.85;81.46;99909.19;4869035;29;20057;-85
2023/01/13 12:20:49;;;;;;;1.10;1.10;;;;;;;-6.87;81.65;99911.06;4827702;29;20180;-81
2023/01/13 12:23:27;;;;;;;0.98;0.98;;;;;;;-6.81;81.66;99916.72;4822118;29;20114;-82
2023/01/13 12:25:58;;;;;;;0.95;0.95;;;;;;;-6.79;81.88;99920.06;4799888;29;20062;-81
2023/01/13 12:28:30;;;;;;;0.90;0.90;;;;;;;-6.74;82.19;99919.72;4832556;29;20549;-82
2023/01/13 12:31:01;;;;;;;0.80;0.80;;;;;;;-6.71;82.07;99931.78;4790496;29;20495;-82
2023/01/13 12:33:53;;;;;;;0.80;0.80;;;;;;;-6.74;81.86;99911.84;4876628;29;20117;-82
2023/01/13 12:36:32;;;;;;;0.95;0.95;;;;;;;-6.75;82.03;99925.94;4869921;29;20162;-83
2023/01/13 12:39:23;;;;;;;1.15;1.15;;;;;;;-6.73;82.06;99924.03;4875889;29;20053;-82
2023/01/13 12:45:08;;;;;;;0.82;0.82;;;;;;;-6.72;82.08;99928.34;4847678;29;20049;-83